createdAt,value
2023-04-25T00:00:25.345Z,0
2023-04-25T00:00:55.774Z,0
2023-04-25T00:01:26.385Z,0
2023-04-25T00:01:57.731Z,0
2023-04-25T00:02:28.799Z,0
2023-04-25T00:02:59.830Z,0
2023-04-25T00:03:30.874Z,0
2023-04-25T00:04:01.624Z,0
2023-04-25T00:04:32.875Z,0
2023-04-25T00:05:04.268Z,0
2023-04-25T00:05:34.604Z,0
2023-04-25T00:06:05.587Z,0
2023-04-25T00:06:36.721Z,0
2023-04-25T00:07:09.117Z,0
2023-04-25T00:07:38.667Z,0
2023-04-25T00:08:11.277Z,0
2023-04-25T00:08:40.837Z,0
2023-04-25T00:09:12.075Z,0
2023-04-25T00:09:42.829Z,0
2023-04-25T00:10:14.085Z,0
2023-04-25T00:10:44.529Z,0
2023-04-25T00:11:15.611Z,0
2023-04-25T00:11:46.720Z,0
2023-04-25T00:12:17.418Z,0
2023-04-25T00:12:48.540Z,2.15
2023-04-25T00:13:19.633Z,1.43
2023-04-25T00:13:50.850Z,.72
2023-04-25T00:14:21.591Z,2.88
2023-04-25T00:14:52.788Z,1.43
2023-04-25T00:15:24.315Z,3.23
2023-04-25T00:15:54.474Z,3.23
2023-04-25T00:16:25.393Z,1.80
2023-04-25T00:16:56.606Z,1.80
2023-04-25T00:17:27.437Z,.72
2023-04-25T00:17:58.532Z,.35
2023-04-25T00:18:29.501Z,.35
2023-04-25T00:19:00.851Z,1.07
2023-04-25T00:19:31.457Z,.35
2023-04-25T00:20:03.370Z,2.52
2023-04-25T00:20:33.418Z,1.43
2023-04-25T00:21:04.626Z,1.07
2023-04-25T00:21:35.418Z,1.43
2023-04-25T00:22:06.445Z,1.80
2023-04-25T00:22:37.467Z,2.15
2023-04-25T00:23:08.452Z,1.43
2023-04-25T00:23:39.447Z,2.88
2023-04-25T00:24:10.441Z,1.43
2023-04-25T00:24:41.650Z,.72
2023-04-25T00:25:13.467Z,0
2023-04-25T00:25:43.439Z,0
2023-04-25T00:26:14.427Z,0
2023-04-25T00:26:45.457Z,0
2023-04-25T00:27:16.416Z,0
2023-04-25T00:27:47.717Z,0
2023-04-25T00:28:18.588Z,0
2023-04-25T00:28:49.467Z,0
2023-04-25T00:29:20.569Z,0
2023-04-25T00:29:51.581Z,0
2023-04-25T00:30:23.445Z,0
2023-04-25T00:30:53.503Z,0
2023-04-25T00:31:24.725Z,0
2023-04-25T00:31:55.864Z,0
2023-04-25T00:32:26.549Z,0
2023-04-25T00:32:57.494Z,0
2023-04-25T00:33:28.448Z,0
2023-04-25T00:33:59.400Z,0
2023-04-25T00:34:30.771Z,0
2023-04-25T00:35:01.880Z,0
2023-04-25T00:35:32.572Z,0
2023-04-25T00:36:03.544Z,0
2023-04-25T00:36:35.414Z,0
2023-04-25T00:37:05.671Z,0
2023-04-25T00:37:36.536Z,0
2023-04-25T00:38:07.800Z,0
2023-04-25T00:38:40.060Z,0
2023-04-25T00:39:09.933Z,0
2023-04-25T00:39:41.448Z,0
2023-04-25T00:40:11.841Z,0
2023-04-25T00:40:42.750Z,0
2023-04-25T00:41:13.486Z,0
2023-04-25T00:41:44.552Z,0
2023-04-25T00:42:15.775Z,0
2023-04-25T00:42:46.758Z,0
2023-04-25T00:43:17.735Z,0
2023-04-25T00:43:49.107Z,0
2023-04-25T00:44:19.509Z,0
2023-04-25T00:44:50.806Z,0
2023-04-25T00:45:22.396Z,0
2023-04-25T00:45:52.801Z,0
2023-04-25T00:46:23.542Z,0
2023-04-25T00:46:54.548Z,0
2023-04-25T00:47:25.945Z,0
2023-04-25T00:47:57.074Z,0
2023-04-25T00:48:27.783Z,0
2023-04-25T00:48:58.561Z,0
2023-04-25T00:49:29.565Z,0
2023-04-25T00:50:00.731Z,1.80
2023-04-25T00:50:31.463Z,.35
2023-04-25T00:51:02.750Z,.35
2023-04-25T00:51:33.535Z,2.15
2023-04-25T00:52:05.018Z,.35
2023-04-25T00:52:35.559Z,1.43
2023-04-25T00:53:06.659Z,2.15
2023-04-25T00:53:37.751Z,1.43
2023-04-25T00:54:08.542Z,0
2023-04-25T00:54:39.962Z,0
2023-04-25T00:55:11.008Z,2.52
2023-04-25T00:55:41.770Z,2.52
2023-04-25T00:56:12.557Z,2.15
2023-04-25T00:56:43.587Z,2.88
2023-04-25T00:57:14.588Z,2.52
2023-04-25T00:57:46.034Z,2.88
2023-04-25T00:58:16.948Z,2.88
2023-04-25T00:58:47.784Z,1.80
2023-04-25T00:59:18.752Z,1.43
2023-04-25T00:59:49.997Z,0
2023-04-25T01:00:21.396Z,0
2023-04-25T01:00:51.678Z,3.60
2023-04-25T01:01:22.683Z,2.88
2023-04-25T01:01:53.616Z,1.07
2023-04-25T01:02:24.948Z,0
2023-04-25T01:02:56.007Z,0
2023-04-25T01:03:26.836Z,0
2023-04-25T01:03:58.464Z,0
2023-04-25T01:04:28.732Z,0
2023-04-25T01:05:00.224Z,0
2023-04-25T01:05:30.848Z,0
2023-04-25T01:06:01.593Z,0
2023-04-25T01:06:32.575Z,0
2023-04-25T01:07:03.715Z,0
2023-04-25T01:07:35.009Z,0
2023-04-25T01:08:05.585Z,0
2023-04-25T01:08:36.870Z,0
2023-04-25T01:09:07.911Z,0
2023-04-25T01:09:38.893Z,0
2023-04-25T01:10:11.812Z,0
2023-04-25T01:10:40.643Z,0
2023-04-25T01:11:12.751Z,0
2023-04-25T01:11:42.842Z,0
2023-04-25T01:12:14.043Z,0
2023-04-25T01:12:44.568Z,0
2023-04-25T01:13:16.230Z,0
2023-04-25T01:13:46.972Z,0
2023-04-25T01:14:17.734Z,0
2023-04-25T01:14:48.654Z,0
2023-04-25T01:15:20.362Z,0
2023-04-25T01:15:50.713Z,0
2023-04-25T01:16:21.713Z,0
2023-04-25T01:16:52.687Z,0
2023-04-25T01:17:23.857Z,0
2023-04-25T01:17:54.684Z,0
2023-04-25T01:18:25.930Z,0
2023-04-25T01:18:56.949Z,0
2023-04-25T01:19:27.621Z,0
2023-04-25T01:19:58.664Z,0
2023-04-25T01:20:30.133Z,0
2023-04-25T01:21:01.042Z,0
2023-04-25T01:21:32.072Z,0
2023-04-25T01:22:02.597Z,0
2023-04-25T01:22:33.671Z,0
2023-04-25T01:23:04.631Z,2.15
2023-04-25T01:23:35.870Z,2.15
2023-04-25T01:24:06.795Z,2.88
2023-04-25T01:24:37.883Z,1.07
2023-04-25T01:25:08.863Z,1.43
2023-04-25T01:25:39.668Z,0
2023-04-25T01:26:10.711Z,2.88
2023-04-25T01:26:41.851Z,2.88
2023-04-25T01:27:13.030Z,2.15
2023-04-25T01:27:43.869Z,.35
2023-04-25T01:28:14.985Z,0
2023-04-25T01:28:45.868Z,0
2023-04-25T01:29:16.906Z,1.43
2023-04-25T01:29:47.695Z,2.15
2023-04-25T01:30:20.065Z,2.88
2023-04-25T01:30:49.663Z,2.15
2023-04-25T01:31:21.100Z,1.43
2023-04-25T01:31:51.744Z,1.43
2023-04-25T01:32:22.739Z,1.43
2023-04-25T01:32:53.782Z,2.52
2023-04-25T01:33:25.047Z,2.52
2023-04-25T01:33:55.692Z,2.88
2023-04-25T01:34:26.890Z,.72
2023-04-25T01:34:57.715Z,0
2023-04-25T01:35:28.980Z,3.60
2023-04-25T01:35:59.719Z,3.23
2023-04-25T01:36:30.724Z,5.03
2023-04-25T01:37:01.710Z,3.95
2023-04-25T01:37:33.037Z,4.68
2023-04-25T01:38:03.728Z,3.60
2023-04-25T01:38:35.056Z,4.31
2023-04-25T01:39:05.825Z,2.15
2023-04-25T01:39:36.716Z,1.43
2023-04-25T01:40:08.783Z,3.95
2023-04-25T01:40:39.081Z,2.88
2023-04-25T01:41:09.775Z,1.43
2023-04-25T01:41:42.012Z,3.60
2023-04-25T01:42:11.679Z,5.76
2023-04-25T01:42:43.391Z,3.60
2023-04-25T01:43:13.896Z,3.95
2023-04-25T01:43:45.296Z,3.95
2023-04-25T01:44:15.994Z,3.95
2023-04-25T01:44:47.032Z,3.95
2023-04-25T01:45:18.785Z,6.11
2023-04-25T01:45:49.112Z,4.31
2023-04-25T01:46:20.023Z,3.60
2023-04-25T01:46:50.735Z,2.15
2023-04-25T01:47:21.834Z,1.43
2023-04-25T01:47:52.801Z,3.60
2023-04-25T01:48:23.639Z,0
2023-04-25T01:48:54.999Z,2.15
2023-04-25T01:49:25.757Z,3.60
2023-04-25T01:49:56.690Z,1.80
2023-04-25T01:50:28.356Z,3.95
2023-04-25T01:50:58.759Z,5.40
2023-04-25T01:51:29.893Z,4.68
2023-04-25T01:52:01.047Z,3.60
2023-04-25T01:52:31.913Z,2.52
2023-04-25T01:53:02.677Z,2.52
2023-04-25T01:53:33.771Z,4.68
2023-04-25T01:54:05.134Z,1.07
2023-04-25T01:54:35.759Z,2.15
2023-04-25T01:55:07.168Z,3.60
2023-04-25T01:55:38.189Z,0
2023-04-25T01:56:08.765Z,4.68
2023-04-25T01:56:39.746Z,4.68
2023-04-25T01:57:10.747Z,5.76
2023-04-25T01:57:41.793Z,7.19
2023-04-25T01:58:12.795Z,7.19
2023-04-25T01:58:43.826Z,2.15
2023-04-25T01:59:14.762Z,2.15
2023-04-25T01:59:46.566Z,2.15
2023-04-25T02:00:17.953Z,4.68
2023-04-25T02:00:48.005Z,4.31
2023-04-25T02:01:19.066Z,3.60
2023-04-25T02:01:50.159Z,4.68
2023-04-25T02:02:20.868Z,3.23
2023-04-25T02:02:52.421Z,2.15
2023-04-25T02:03:23.538Z,2.15
2023-04-25T02:03:54.401Z,2.88
2023-04-25T02:04:25.304Z,2.88
2023-04-25T02:04:56.578Z,4.68
2023-04-25T02:05:27.165Z,3.23
2023-04-25T02:05:58.718Z,3.23
2023-04-25T02:06:28.969Z,4.31
2023-04-25T02:06:59.879Z,2.15
2023-04-25T02:07:30.795Z,2.15
2023-04-25T02:08:01.794Z,3.60
2023-04-25T02:08:32.794Z,3.95
2023-04-25T02:09:04.029Z,1.43
2023-04-25T02:09:35.414Z,1.43
2023-04-25T02:10:06.173Z,1.43
2023-04-25T02:10:37.158Z,0
2023-04-25T02:11:07.821Z,0
2023-04-25T02:11:38.855Z,0
2023-04-25T02:12:10.245Z,0
2023-04-25T02:12:40.739Z,0
2023-04-25T02:13:13.452Z,3.23
2023-04-25T02:13:42.785Z,3.60
2023-04-25T02:14:14.966Z,4.68
2023-04-25T02:14:44.820Z,4.31
2023-04-25T02:15:17.321Z,.35
2023-04-25T02:15:46.976Z,0
2023-04-25T02:16:17.982Z,0
2023-04-25T02:16:48.909Z,5.40
2023-04-25T02:17:19.868Z,2.88
2023-04-25T02:17:51.198Z,2.15
2023-04-25T02:18:22.241Z,.35
2023-04-25T02:18:53.161Z,0
2023-04-25T02:19:24.079Z,.72
2023-04-25T02:19:55.141Z,0
2023-04-25T02:20:26.299Z,0
2023-04-25T02:20:56.882Z,0
2023-04-25T02:21:27.871Z,0
2023-04-25T02:21:59.211Z,0
2023-04-25T02:22:30.157Z,0
2023-04-25T02:23:01.129Z,0
2023-04-25T02:23:32.069Z,0
2023-04-25T02:24:02.912Z,0
2023-04-25T02:24:33.997Z,0
2023-04-25T02:25:05.287Z,0
2023-04-25T02:25:35.879Z,0
2023-04-25T02:26:06.903Z,0
2023-04-25T02:26:38.098Z,0
2023-04-25T02:27:09.148Z,0
2023-04-25T02:27:40.172Z,0
2023-04-25T02:28:10.903Z,0
2023-04-25T02:28:42.137Z,0
2023-04-25T02:29:13.141Z,0
2023-04-25T02:29:44.056Z,0
2023-04-25T02:30:15.692Z,0
2023-04-25T02:30:45.882Z,0
2023-04-25T02:31:16.884Z,0
2023-04-25T02:31:48.255Z,0
2023-04-25T02:32:18.863Z,0
2023-04-25T02:32:50.330Z,0
2023-04-25T02:33:21.092Z,0
2023-04-25T02:33:52.533Z,0
2023-04-25T02:34:22.900Z,0
2023-04-25T02:34:54.149Z,0
2023-04-25T02:35:25.303Z,0
2023-04-25T02:35:56.319Z,0
2023-04-25T02:36:26.852Z,0
2023-04-25T02:36:57.886Z,0
2023-04-25T02:37:29.334Z,0
2023-04-25T02:37:59.926Z,0
2023-04-25T02:38:31.262Z,0
2023-04-25T02:39:02.150Z,0
2023-04-25T02:39:33.098Z,0
2023-04-25T02:40:04.651Z,0
2023-04-25T02:40:35.764Z,0
2023-04-25T02:41:05.939Z,0
2023-04-25T02:41:37.054Z,0
2023-04-25T02:42:08.086Z,0
2023-04-25T02:42:38.853Z,0
2023-04-25T02:43:10.244Z,0
2023-04-25T02:43:40.859Z,0
2023-04-25T02:44:12.185Z,0
2023-04-25T02:44:44.758Z,0
2023-04-25T02:45:14.507Z,0
2023-04-25T02:45:45.533Z,0
2023-04-25T02:46:19.103Z,0
2023-04-25T02:46:47.519Z,0
2023-04-25T02:47:18.263Z,0
2023-04-25T02:47:48.936Z,0
2023-04-25T02:48:20.132Z,0
2023-04-25T02:48:51.278Z,0
2023-04-25T02:49:22.034Z,0
2023-04-25T02:49:53.289Z,0
2023-04-25T02:50:24.674Z,0
2023-04-25T02:50:55.158Z,0
2023-04-25T02:51:26.219Z,0
2023-04-25T02:51:57.289Z,0
2023-04-25T02:52:28.280Z,0
2023-04-25T02:52:58.921Z,0
2023-04-25T02:53:29.942Z,0
2023-04-25T02:54:00.863Z,0
2023-04-25T02:54:31.937Z,0
2023-04-25T02:55:03.118Z,0
2023-04-25T02:55:33.889Z,0
2023-04-25T02:56:05.215Z,0
2023-04-25T02:56:36.222Z,0
2023-04-25T02:57:07.313Z,0
2023-04-25T02:57:38.350Z,0
2023-04-25T02:58:09.355Z,0
2023-04-25T02:58:40.185Z,0
2023-04-25T02:59:11.336Z,0
2023-04-25T02:59:42.342Z,0
2023-04-25T03:00:14.050Z,0
2023-04-25T03:00:44.019Z,0
2023-04-25T03:01:15.145Z,0
2023-04-25T03:01:46.331Z,0
2023-04-25T03:02:17.524Z,0
2023-04-25T03:02:48.342Z,0
2023-04-25T03:03:19.331Z,0
2023-04-25T03:03:50.302Z,0
2023-04-25T03:04:21.700Z,0
2023-04-25T03:04:52.971Z,0
2023-04-25T03:05:23.687Z,0
2023-04-25T03:05:53.960Z,0
2023-04-25T03:06:25.567Z,0
2023-04-25T03:06:55.971Z,0
2023-04-25T03:07:26.964Z,0
2023-04-25T03:07:58.466Z,0
2023-04-25T03:08:29.340Z,0
2023-04-25T03:09:00.008Z,0
2023-04-25T03:09:30.951Z,0
2023-04-25T03:10:02.351Z,0
2023-04-25T03:10:33.303Z,0
2023-04-25T03:11:04.320Z,0
2023-04-25T03:11:36.180Z,0
2023-04-25T03:12:05.997Z,0
2023-04-25T03:12:37.015Z,0
2023-04-25T03:13:08.078Z,0
2023-04-25T03:13:39.041Z,0
2023-04-25T03:14:10.025Z,0
2023-04-25T03:14:41.104Z,0
2023-04-25T03:15:12.804Z,0
2023-04-25T03:15:43.087Z,0
2023-04-25T03:16:15.084Z,0
2023-04-25T03:16:45.569Z,0
2023-04-25T03:17:17.288Z,0
2023-04-25T03:17:47.153Z,0
2023-04-25T03:18:18.754Z,0
2023-04-25T03:18:49.240Z,0
2023-04-25T03:19:19.970Z,0
2023-04-25T03:19:51.015Z,0
2023-04-25T03:20:22.805Z,0
2023-04-25T03:20:53.521Z,0
2023-04-25T03:21:24.077Z,0
2023-04-25T03:21:55.281Z,0
2023-04-25T03:22:26.414Z,0
2023-04-25T03:22:56.962Z,0
2023-04-25T03:23:28.158Z,0
2023-04-25T03:23:59.057Z,0
2023-04-25T03:24:30.057Z,0
2023-04-25T03:25:01.279Z,0
2023-04-25T03:25:32.098Z,0
2023-04-25T03:26:03.532Z,0
2023-04-25T03:26:34.927Z,0
2023-04-25T03:27:05.305Z,0
2023-04-25T03:27:36.089Z,0
2023-04-25T03:28:07.167Z,0
2023-04-25T03:28:38.298Z,0
2023-04-25T03:29:09.072Z,0
2023-04-25T03:29:40.344Z,0
2023-04-25T03:30:12.155Z,0
2023-04-25T03:30:42.111Z,0
2023-04-25T03:31:12.993Z,0
2023-04-25T03:31:43.993Z,0
2023-04-25T03:32:15.144Z,0
2023-04-25T03:32:46.401Z,0
2023-04-25T03:33:17.336Z,0
2023-04-25T03:33:48.390Z,0
2023-04-25T03:34:19.186Z,0
2023-04-25T03:34:50.260Z,0
2023-04-25T03:35:21.657Z,0
2023-04-25T03:35:52.399Z,0
2023-04-25T03:36:23.106Z,0
2023-04-25T03:36:54.101Z,0
2023-04-25T03:37:25.123Z,0
2023-04-25T03:37:56.032Z,0
2023-04-25T03:38:27.237Z,0
2023-04-25T03:38:58.218Z,0
2023-04-25T03:39:29.031Z,0
2023-04-25T03:40:00.901Z,0
2023-04-25T03:40:31.610Z,0
2023-04-25T03:41:02.117Z,0
2023-04-25T03:41:33.132Z,0
2023-04-25T03:42:04.089Z,0
2023-04-25T03:42:35.232Z,0
2023-04-25T03:43:06.219Z,0
2023-04-25T03:43:37.222Z,4.31
2023-04-25T03:44:08.113Z,3.23
2023-04-25T03:44:39.100Z,0
2023-04-25T03:45:11.176Z,0
2023-04-25T03:45:41.532Z,0
2023-04-25T03:46:12.206Z,0
2023-04-25T03:46:43.148Z,0
2023-04-25T03:47:14.457Z,0
2023-04-25T03:47:46.556Z,0
2023-04-25T03:48:16.087Z,3.95
2023-04-25T03:48:47.744Z,1.07
2023-04-25T03:49:19.615Z,2.15
2023-04-25T03:49:49.132Z,1.07
2023-04-25T03:50:20.783Z,2.15
2023-04-25T03:50:51.103Z,2.88
2023-04-25T03:51:22.584Z,3.23
2023-04-25T03:51:53.083Z,.35
2023-04-25T03:52:24.225Z,4.68
2023-04-25T03:52:55.111Z,1.07
2023-04-25T03:53:26.283Z,1.80
2023-04-25T03:53:57.349Z,1.07
2023-04-25T03:54:28.556Z,0
2023-04-25T03:54:59.607Z,1.07
2023-04-25T03:55:30.780Z,3.60
2023-04-25T03:56:01.459Z,3.60
2023-04-25T03:56:32.074Z,.35
2023-04-25T03:57:03.452Z,1.43
2023-04-25T03:57:34.233Z,4.68
2023-04-25T03:58:05.618Z,1.43
2023-04-25T03:58:36.437Z,3.23
2023-04-25T03:59:07.361Z,1.43
2023-04-25T03:59:38.162Z,2.88
2023-04-25T04:00:10.202Z,2.88
2023-04-25T04:00:40.345Z,3.23
2023-04-25T04:01:11.509Z,3.95
2023-04-25T04:01:42.213Z,5.76
2023-04-25T04:02:13.351Z,3.60
2023-04-25T04:02:45.490Z,3.60
2023-04-25T04:03:15.594Z,1.80
2023-04-25T04:03:46.320Z,0
2023-04-25T04:04:17.677Z,0
2023-04-25T04:04:48.575Z,3.95
2023-04-25T04:05:19.968Z,1.07
2023-04-25T04:05:50.831Z,0
2023-04-25T04:06:21.560Z,0
2023-04-25T04:06:52.481Z,0
2023-04-25T04:07:23.538Z,1.07
2023-04-25T04:07:54.586Z,2.15
2023-04-25T04:08:25.512Z,3.95
2023-04-25T04:08:56.643Z,1.80
2023-04-25T04:09:27.661Z,7.19
2023-04-25T04:09:58.167Z,5.40
2023-04-25T04:10:29.866Z,3.95
2023-04-25T04:11:00.423Z,4.68
2023-04-25T04:11:31.167Z,4.31
2023-04-25T04:12:02.152Z,3.60
2023-04-25T04:12:33.214Z,2.15
2023-04-25T04:13:04.217Z,5.76
2023-04-25T04:13:35.391Z,4.31
2023-04-25T04:14:06.349Z,1.07
2023-04-25T04:14:37.535Z,3.60
2023-04-25T04:15:09.142Z,5.03
2023-04-25T04:15:39.697Z,3.95
2023-04-25T04:16:10.961Z,2.88
2023-04-25T04:16:41.358Z,2.15
2023-04-25T04:17:12.248Z,5.03
2023-04-25T04:17:43.267Z,3.95
2023-04-25T04:18:14.247Z,4.68
2023-04-25T04:18:45.743Z,0
2023-04-25T04:19:17.500Z,2.52
2023-04-25T04:19:47.274Z,6.11
2023-04-25T04:20:20.908Z,4.68
2023-04-25T04:20:49.227Z,1.43
2023-04-25T04:21:20.457Z,0
2023-04-25T04:21:51.338Z,3.23
2023-04-25T04:22:22.357Z,2.15
2023-04-25T04:22:53.618Z,0
2023-04-25T04:23:24.476Z,1.43
2023-04-25T04:23:55.865Z,2.52
2023-04-25T04:24:26.641Z,2.88
2023-04-25T04:24:57.802Z,0
2023-04-25T04:25:28.738Z,1.07
2023-04-25T04:25:59.508Z,0
2023-04-25T04:26:30.702Z,.72
2023-04-25T04:27:01.318Z,3.60
2023-04-25T04:27:32.299Z,5.76
2023-04-25T04:28:03.348Z,3.95
2023-04-25T04:28:34.272Z,1.43
2023-04-25T04:29:05.444Z,.35
2023-04-25T04:29:36.713Z,2.52
2023-04-25T04:30:08.093Z,.72
2023-04-25T04:30:38.616Z,1.43
2023-04-25T04:31:09.583Z,1.07
2023-04-25T04:31:40.662Z,.35
2023-04-25T04:32:11.501Z,5.03
2023-04-25T04:32:42.722Z,2.88
2023-04-25T04:33:13.482Z,1.43
2023-04-25T04:33:44.304Z,0
2023-04-25T04:34:15.709Z,2.88
2023-04-25T04:34:46.328Z,0
2023-04-25T04:35:18.057Z,4.68
2023-04-25T04:35:48.559Z,1.43
2023-04-25T04:36:19.422Z,.72
2023-04-25T04:36:50.309Z,0
2023-04-25T04:37:21.419Z,0
2023-04-25T04:37:52.669Z,0
2023-04-25T04:38:23.498Z,0
2023-04-25T04:38:54.351Z,2.52
2023-04-25T04:39:25.498Z,.35
2023-04-25T04:39:56.602Z,1.80
2023-04-25T04:40:28.091Z,0
2023-04-25T04:40:58.360Z,1.80
2023-04-25T04:41:29.649Z,0
2023-04-25T04:42:00.320Z,0
2023-04-25T04:42:31.344Z,0
2023-04-25T04:43:02.755Z,1.43
2023-04-25T04:43:33.576Z,1.43
2023-04-25T04:44:04.339Z,1.07
2023-04-25T04:44:36.006Z,1.07
2023-04-25T04:45:07.155Z,0
2023-04-25T04:45:37.430Z,0
2023-04-25T04:46:08.499Z,0
2023-04-25T04:46:39.379Z,0
2023-04-25T04:47:10.620Z,.72
2023-04-25T04:47:41.576Z,.35
2023-04-25T04:48:12.847Z,0
2023-04-25T04:48:43.849Z,0
2023-04-25T04:49:14.354Z,0
2023-04-25T04:49:45.394Z,0
2023-04-25T04:50:17.158Z,0
2023-04-25T04:50:48.679Z,0
2023-04-25T04:51:18.553Z,0
2023-04-25T04:51:51.213Z,0
2023-04-25T04:52:20.763Z,0
2023-04-25T04:52:51.924Z,0
2023-04-25T04:53:22.746Z,0
2023-04-25T04:53:54.242Z,0
2023-04-25T04:54:25.409Z,0
2023-04-25T04:54:55.389Z,0
2023-04-25T04:55:27.273Z,0
2023-04-25T04:55:57.575Z,0
2023-04-25T04:56:28.655Z,0
2023-04-25T04:56:59.658Z,0
2023-04-25T04:57:30.712Z,0
2023-04-25T04:58:01.687Z,0
2023-04-25T04:58:32.770Z,0
2023-04-25T04:59:03.965Z,0
2023-04-25T04:59:35.199Z,0
2023-04-25T05:00:06.710Z,0
2023-04-25T05:00:36.457Z,0
2023-04-25T05:01:07.701Z,0
2023-04-25T05:01:38.404Z,0
2023-04-25T05:02:09.698Z,0
2023-04-25T05:02:41.200Z,0
2023-04-25T05:03:11.609Z,0
2023-04-25T05:03:42.658Z,1.07
2023-04-25T05:04:13.847Z,1.43
2023-04-25T05:04:44.566Z,0
2023-04-25T05:05:15.926Z,0
2023-04-25T05:05:46.425Z,0
2023-04-25T05:06:17.624Z,2.15
2023-04-25T05:06:49.142Z,.35
2023-04-25T05:07:19.615Z,.35
2023-04-25T05:07:50.648Z,3.95
2023-04-25T05:08:21.469Z,4.68
2023-04-25T05:08:52.655Z,6.11
2023-04-25T05:09:23.623Z,2.15
2023-04-25T05:09:54.810Z,2.52
2023-04-25T05:10:26.185Z,3.23
2023-04-25T05:10:56.773Z,5.03
2023-04-25T05:11:27.842Z,2.88
2023-04-25T05:11:58.840Z,.72
2023-04-25T05:12:29.466Z,1.43
2023-04-25T05:13:00.900Z,0
2023-04-25T05:13:31.660Z,0
2023-04-25T05:14:02.518Z,0
2023-04-25T05:14:33.682Z,0
2023-04-25T05:15:05.907Z,4.68
2023-04-25T05:15:35.565Z,0
2023-04-25T05:16:06.538Z,0
2023-04-25T05:16:37.836Z,0
2023-04-25T05:17:08.835Z,0
2023-04-25T05:17:39.519Z,1.43
2023-04-25T05:18:11.020Z,1.07
2023-04-25T05:18:41.827Z,.35
2023-04-25T05:19:12.439Z,0
2023-04-25T05:19:43.500Z,0
2023-04-25T05:20:14.979Z,4.68
2023-04-25T05:20:45.469Z,1.80
2023-04-25T05:21:16.512Z,3.60
2023-04-25T05:21:47.662Z,2.88
2023-04-25T05:22:19.377Z,2.52
2023-04-25T05:22:49.488Z,4.68
2023-04-25T05:23:20.905Z,2.15
2023-04-25T05:23:51.952Z,0
2023-04-25T05:24:22.819Z,0
2023-04-25T05:24:55.943Z,0
2023-04-25T05:25:24.954Z,0
2023-04-25T05:25:55.531Z,.72
2023-04-25T05:26:26.580Z,0
2023-04-25T05:26:57.527Z,0
2023-04-25T05:27:28.491Z,2.15
2023-04-25T05:27:59.533Z,5.40
2023-04-25T05:28:30.910Z,1.80
2023-04-25T05:29:01.842Z,2.52
2023-04-25T05:29:32.640Z,2.88
2023-04-25T05:30:04.417Z,3.95
2023-04-25T05:30:34.904Z,3.60
2023-04-25T05:31:06.037Z,5.40
2023-04-25T05:31:36.574Z,3.60
2023-04-25T05:32:07.546Z,3.23
2023-04-25T05:32:38.535Z,6.48
2023-04-25T05:33:09.638Z,7.91
2023-04-25T05:33:40.900Z,10.07
2023-04-25T05:34:11.704Z,5.03
2023-04-25T05:34:42.746Z,6.83
2023-04-25T05:35:14.186Z,2.88
2023-04-25T05:35:44.790Z,8.64
2023-04-25T05:36:15.513Z,5.40
2023-04-25T05:36:46.549Z,3.95
2023-04-25T05:37:17.489Z,2.88
2023-04-25T05:37:48.553Z,6.48
2023-04-25T05:38:19.678Z,6.11
2023-04-25T05:38:50.618Z,10.07
2023-04-25T05:39:21.835Z,5.40
2023-04-25T05:39:52.915Z,3.95
2023-04-25T05:40:24.280Z,3.60
2023-04-25T05:40:55.003Z,1.43
2023-04-25T05:41:25.606Z,2.15
2023-04-25T05:41:56.646Z,1.80
2023-04-25T05:42:27.702Z,1.43
2023-04-25T05:42:58.656Z,5.40
2023-04-25T05:43:29.751Z,3.60
2023-04-25T05:44:00.891Z,5.03
2023-04-25T05:44:31.550Z,3.23
2023-04-25T05:45:03.289Z,3.60
2023-04-25T05:45:33.687Z,1.43
2023-04-25T05:46:05.287Z,.35
2023-04-25T05:46:35.625Z,0
2023-04-25T05:47:06.613Z,1.43
2023-04-25T05:47:37.798Z,5.40
2023-04-25T05:48:08.871Z,5.03
2023-04-25T05:48:39.959Z,2.88
2023-04-25T05:49:10.933Z,1.80
2023-04-25T05:49:41.875Z,5.03
2023-04-25T05:50:13.191Z,1.07
2023-04-25T05:50:43.620Z,4.31
2023-04-25T05:51:14.570Z,.72
2023-04-25T05:51:45.645Z,0
2023-04-25T05:52:16.744Z,2.88
2023-04-25T05:52:47.682Z,4.68
2023-04-25T05:53:19.305Z,3.95
2023-04-25T05:53:51.100Z,1.07
2023-04-25T05:54:20.613Z,5.76
2023-04-25T05:54:52.092Z,2.15
2023-04-25T05:55:23.197Z,5.40
2023-04-25T05:55:53.572Z,4.68
2023-04-25T05:56:24.766Z,2.15
2023-04-25T05:56:55.876Z,2.88
2023-04-25T05:57:26.593Z,3.23
2023-04-25T05:57:57.634Z,2.88
2023-04-25T05:58:29.115Z,0
2023-04-25T05:58:59.970Z,0
2023-04-25T05:59:30.969Z,3.60
2023-04-25T06:00:02.316Z,4.31
2023-04-25T06:00:32.727Z,5.03
2023-04-25T06:01:03.695Z,6.48
2023-04-25T06:01:34.616Z,7.56
2023-04-25T06:02:06.093Z,5.40
2023-04-25T06:02:36.702Z,5.40
2023-04-25T06:03:08.230Z,3.60
2023-04-25T06:03:39.004Z,7.91
2023-04-25T06:04:09.922Z,6.11
2023-04-25T06:04:40.765Z,4.68
2023-04-25T06:05:12.114Z,6.48
2023-04-25T06:05:42.636Z,6.48
2023-04-25T06:06:13.937Z,5.76
2023-04-25T06:06:44.933Z,5.03
2023-04-25T06:07:16.125Z,4.68
2023-04-25T06:07:46.598Z,4.68
2023-04-25T06:08:17.744Z,4.31
2023-04-25T06:08:49.023Z,.72
2023-04-25T06:09:19.810Z,5.03
2023-04-25T06:09:50.806Z,2.52
2023-04-25T06:10:22.758Z,4.31
2023-04-25T06:10:53.018Z,3.23
2023-04-25T06:11:23.800Z,2.88
2023-04-25T06:11:54.932Z,7.91
2023-04-25T06:12:25.846Z,5.76
2023-04-25T06:12:56.545Z,2.88
2023-04-25T06:13:27.738Z,3.95
2023-04-25T06:13:58.632Z,6.11
2023-04-25T06:14:29.877Z,2.88
2023-04-25T06:15:02.084Z,3.60
2023-04-25T06:15:31.819Z,2.15
2023-04-25T06:16:02.758Z,5.76
2023-04-25T06:16:33.858Z,6.11
2023-04-25T06:17:05.047Z,5.40
2023-04-25T06:17:35.926Z,6.48
2023-04-25T06:18:06.675Z,5.40
2023-04-25T06:18:38.044Z,4.68
2023-04-25T06:19:08.875Z,5.76
2023-04-25T06:19:39.964Z,6.11
2023-04-25T06:20:11.290Z,9.36
2023-04-25T06:20:41.638Z,6.11
2023-04-25T06:21:12.907Z,7.91
2023-04-25T06:21:43.841Z,7.19
2023-04-25T06:22:14.612Z,7.56
2023-04-25T06:22:45.677Z,7.19
2023-04-25T06:23:16.770Z,5.40
2023-04-25T06:23:47.738Z,7.91
2023-04-25T06:24:18.779Z,6.48
2023-04-25T06:24:49.777Z,4.68
2023-04-25T06:25:22.471Z,2.15
2023-04-25T06:25:52.073Z,2.88
2023-04-25T06:26:23.927Z,3.60
2023-04-25T06:26:54.190Z,3.23
2023-04-25T06:27:25.189Z,8.27
2023-04-25T06:27:55.982Z,4.31
2023-04-25T06:28:26.769Z,7.91
2023-04-25T06:28:57.827Z,3.60
2023-04-25T06:29:28.762Z,3.60
2023-04-25T06:29:59.872Z,5.40
2023-04-25T06:30:31.612Z,5.76
2023-04-25T06:31:02.005Z,11.15
2023-04-25T06:31:32.843Z,9.36
2023-04-25T06:32:04.165Z,8.27
2023-04-25T06:32:34.886Z,6.48
2023-04-25T06:33:05.863Z,7.19
2023-04-25T06:33:37.119Z,7.56
2023-04-25T06:34:07.835Z,9.36
2023-04-25T06:34:38.805Z,11.52
2023-04-25T06:35:10.150Z,9.36
2023-04-25T06:35:40.987Z,7.19
2023-04-25T06:36:12.032Z,11.15
2023-04-25T06:36:43.123Z,7.19
2023-04-25T06:37:14.160Z,6.83
2023-04-25T06:37:44.916Z,10.79
2023-04-25T06:38:16.178Z,11.87
2023-04-25T06:38:46.915Z,6.83
2023-04-25T06:39:17.908Z,8.99
2023-04-25T06:39:48.823Z,9.36
2023-04-25T06:40:20.537Z,10.44
2023-04-25T06:40:51.063Z,12.60
2023-04-25T06:41:21.863Z,6.48
2023-04-25T06:41:52.840Z,6.83
2023-04-25T06:42:24.218Z,9.72
2023-04-25T06:42:55.336Z,7.56
2023-04-25T06:43:25.785Z,7.91
2023-04-25T06:43:56.688Z,6.83
2023-04-25T06:44:27.759Z,11.52
2023-04-25T06:44:58.787Z,7.19
2023-04-25T06:45:30.585Z,5.76
2023-04-25T06:46:01.071Z,12.24
2023-04-25T06:46:31.980Z,7.56
2023-04-25T06:47:02.847Z,8.99
2023-04-25T06:47:34.050Z,3.60
2023-04-25T06:48:04.912Z,6.48
2023-04-25T06:48:35.974Z,3.95
2023-04-25T06:49:06.959Z,5.76
2023-04-25T06:49:38.259Z,7.56
2023-04-25T06:50:09.239Z,8.64
2023-04-25T06:50:39.988Z,6.48
2023-04-25T06:51:11.114Z,5.03
2023-04-25T06:51:42.101Z,9.36
2023-04-25T06:52:12.911Z,5.40
2023-04-25T06:52:44.494Z,5.03
2023-04-25T06:53:15.244Z,4.31
2023-04-25T06:53:45.913Z,4.68
2023-04-25T06:54:16.910Z,2.88
2023-04-25T06:54:47.840Z,7.91
2023-04-25T06:55:19.689Z,7.91
2023-04-25T06:55:50.352Z,7.91
2023-04-25T06:56:21.275Z,5.03
2023-04-25T06:56:53.330Z,7.56
2023-04-25T06:57:22.947Z,5.76
2023-04-25T06:57:55.113Z,4.68
2023-04-25T06:58:24.890Z,7.19
2023-04-25T06:58:55.808Z,4.68
2023-04-25T06:59:26.905Z,9.36
2023-04-25T06:59:58.151Z,6.83
2023-04-25T07:00:29.631Z,10.44
2023-04-25T07:01:00.657Z,6.83
2023-04-25T07:01:30.960Z,6.11
2023-04-25T07:02:02.106Z,7.19
2023-04-25T07:02:33.146Z,8.27
2023-04-25T07:03:04.072Z,7.91
2023-04-25T07:03:35.397Z,8.99
2023-04-25T07:04:06.259Z,9.72
2023-04-25T07:04:37.386Z,7.91
2023-04-25T07:05:08.540Z,10.44
2023-04-25T07:05:39.100Z,7.19
2023-04-25T07:06:09.897Z,9.72
2023-04-25T07:06:40.913Z,7.56
2023-04-25T07:07:11.920Z,8.64
2023-04-25T07:07:42.888Z,9.36
2023-04-25T07:08:13.921Z,10.07
2023-04-25T07:08:45.266Z,9.36
2023-04-25T07:09:15.988Z,8.27
2023-04-25T07:09:46.968Z,4.68
2023-04-25T07:10:18.770Z,6.48
2023-04-25T07:10:50.152Z,7.56
2023-04-25T07:11:19.892Z,14.40
2023-04-25T07:11:51.151Z,9.72
2023-04-25T07:12:21.870Z,10.44